Time;durP1;ratioP1;P1;durP2;ratioP2;P2;SDS_P1;SDS_P2;PMS_P1;PMS_P2;Temp;Humidity;BMP_temperature;BMP_pressure;BME280_temperature;BME280_humidity;BME280_pressure;Samples;Min_cycle;Max_cycle;Signal;HPM_P1;HPM_P2
2022/07/25 00:00:00;;;;;;;7.70;1.90;;;;;;;26.89;46.20;101198.38;5095696;28;20023;-44
2022/07/25 00:02:29;;;;;;;7.85;2.30;;;;;;;27.10;46.11;101226.56;5095808;28;20043;-50
2022/07/25 00:04:57;;;;;;;5.63;1.88;;;;;;;27.11;46.11;101216.03;5117469;28;20051;-44
2022/07/25 00:07:25;;;;;;;10.48;2.53;;;;;;;27.12;45.94;101217.81;5117768;28;20034;-44
2022/07/25 00:09:54;;;;;;;4.43;1.90;;;;;;;27.01;46.21;101203.69;5082356;28;20466;-44
2022/07/25 00:12:22;;;;;;;9.57;2.35;;;;;;;27.18;46.17;101218.69;5117488;28;20024;-45
2022/07/25 00:14:51;;;;;;;5.70;2.22;;;;;;;27.13;46.02;101213.41;5099214;28;20465;-44
2022/07/25 00:17:19;;;;;;;8.30;1.98;;;;;;;27.20;46.03;101214.28;5099746;28;20363;-44
2022/07/25 00:19:48;;;;;;;6.20;2.15;;;;;;;27.20;45.72;101216.94;5117533;28;20385;-48
2022/07/25 00:22:17;;;;;;;7.00;2.38;;;;;;;27.12;46.00;101212.53;5117243;28;20053;-45
2022/07/25 00:24:45;;;;;;;6.93;2.08;;;;;;;27.12;46.08;101211.63;5117593;28;20027;-45
2022/07/25 00:27:14;;;;;;;7.78;2.13;;;;;;;27.12;45.85;101206.38;5117446;28;20015;-46
2022/07/25 00:29:42;;;;;;;9.45;2.35;;;;;;;27.17;45.51;101211.66;5117335;28;20079;-47
2022/07/25 00:32:11;;;;;;;8.43;2.13;;;;;;;27.19;45.82;101209.91;5117511;28;20028;-47
2022/07/25 00:34:40;;;;;;;6.78;2.03;;;;;;;27.24;45.60;101198.50;5117071;28;20480;-45
2022/07/25 00:37:08;;;;;;;5.18;2.35;;;;;;;27.10;45.81;101197.59;5117307;28;20103;-47
2022/07/25 00:39:37;;;;;;;6.43;2.00;;;;;;;27.12;45.84;101194.09;5116829;28;20051;-49
2022/07/25 00:42:05;;;;;;;8.98;3.00;;;;;;;27.23;45.80;101201.16;5098935;28;20055;-43
2022/07/25 00:44:34;;;;;;;11.13;3.10;;;;;;;27.24;45.73;101210.81;5117051;28;20019;-46
2022/07/25 00:47:03;;;;;;;9.50;2.60;;;;;;;27.18;45.82;101206.41;5117035;28;20031;-44
2022/07/25 00:49:31;;;;;;;8.90;2.58;;;;;;;27.25;45.23;101205.53;5116815;28;20024;-45
2022/07/25 00:52:00;;;;;;;9.50;2.72;;;;;;;27.20;45.45;101206.41;5117037;28;20028;-44
2022/07/25 00:54:30;;;;;;;8.93;2.67;;;;;;;27.27;45.41;101218.72;5117198;28;20024;-44
2022/07/25 00:56:58;;;;;;;9.48;2.63;;;;;;;27.12;45.63;101201.09;5116735;28;20028;-50
2022/07/25 00:59:27;;;;;;;8.30;2.20;;;;;;;27.21;45.66;101206.41;5116769;28;20023;-49
2022/07/25 01:01:55;;;;;;;4.45;1.70;;;;;;;27.15;45.45;101204.63;5116523;28;20050;-49
2022/07/25 01:04:23;;;;;;;7.00;2.15;;;;;;;27.23;45.34;101209.91;5098701;28;20034;-44
2022/07/25 01:06:52;;;;;;;9.32;3.15;;;;;;;27.27;45.30;101202.91;5116570;28;20112;-44
2022/07/25 01:09:21;;;;;;;7.97;2.92;;;;;;;27.13;45.33;101201.13;5116577;28;20122;-44
2022/07/25 01:11:50;;;;;;;7.10;2.30;;;;;;;27.12;45.57;101209.00;5098534;28;20486;-43
2022/07/25 01:14:18;;;;;;;9.20;2.88;;;;;;;27.18;45.16;101205.50;5097569;28;20028;-45
2022/07/25 01:16:46;;;;;;;6.38;2.20;;;;;;;27.12;45.42;101201.09;5116478;28;20030;-45
2022/07/25 01:19:15;;;;;;;8.73;2.67;;;;;;;27.09;45.17;101201.09;5116147;28;20016;-45
2022/07/25 01:21:43;;;;;;;7.75;2.20;;;;;;;27.14;44.96;101192.31;5116411;28;20473;-44
2022/07/25 01:24:12;;;;;;;7.90;2.58;;;;;;;27.14;44.90;101199.34;5115982;28;20027;-43
2022/07/25 01:26:41;;;;;;;5.93;2.58;;;;;;;27.18;44.62;101187.97;5116280;28;20031;-44
2022/07/25 01:29:09;;;;;;;6.20;2.45;;;;;;;27.23;44.50;101198.50;5116185;28;20027;-46
2022/07/25 01:31:38;;;;;;;8.15;2.45;;;;;;;27.17;44.46;101204.66;5115915;28;20389;-43
2022/07/25 01:34:05;;;;;;;6.72;2.58;;;;;;;27.22;44.40;101207.28;5116335;28;20024;-44
2022/07/25 01:36:34;;;;;;;7.45;2.40;;;;;;;26.92;44.78;101183.47;5115592;28;20019;-46
2022/07/25 01:39:03;;;;;;;5.80;2.05;;;;;;;27.14;44.50;101200.22;5115849;28;20110;-45
2022/07/25 01:41:31;;;;;;;7.88;2.40;;;;;;;27.17;44.17;101198.47;5115870;28;20027;-44
2022/07/25 01:44:00;;;;;;;6.90;2.53;;;;;;;27.02;44.85;101197.56;5116105;28;20122;-48
2022/07/25 01:46:28;;;;;;;5.85;2.05;;;;;;;27.07;44.10;101192.31;5115880;28;20106;-47
2022/07/25 01:48:57;;;;;;;8.18;3.15;;;;;;;27.08;44.38;101204.59;5115838;28;20023;-43
2022/07/25 01:51:25;;;;;;;7.50;2.50;;;;;;;27.05;44.18;101200.22;5097554;28;20483;-48
2022/07/25 01:53:53;;;;;;;6.70;2.20;;;;;;;27.23;43.62;101214.31;5115731;28;20023;-44
2022/07/25 01:56:22;;;;;;;6.45;2.45;;;;;;;27.23;43.83;101209.03;5097641;28;20381;-46
2022/07/25 01:58:51;;;;;;;8.48;2.80;;;;;;;27.14;43.82;101189.69;5115671;28;20019;-44
2022/07/25 02:01:20;;;;;;;7.65;2.55;;;;;;;27.07;43.91;101211.63;5115653;28;20444;-44
2022/07/25 02:03:47;;;;;;;6.68;2.00;;;;;;;27.22;43.87;101217.81;5114820;28;20517;-44
2022/07/25 02:06:17;;;;;;;6.82;2.90;;;;;;;27.27;43.47;101216.94;5097253;28;20038;-47
2022/07/25 02:08:46;;;;;;;7.93;2.67;;;;;;;27.10;43.41;101197.59;5115448;28;20019;-44
2022/07/25 02:11:14;;;;;;;7.78;2.47;;;;;;;27.19;43.53;101212.53;5097150;28;20020;-45
2022/07/25 02:13:43;;;;;;;7.65;2.83;;;;;;;27.15;43.54;101209.88;5115535;28;20023;-49
2022/07/25 02:16:12;;;;;;;6.63;2.80;;;;;;;27.05;43.65;101216.00;5096521;28;20489;-44
2022/07/25 02:18:40;;;;;;;5.05;1.95;;;;;;;27.13;43.46;101211.66;5115215;28;20023;-47
2022/07/25 02:21:09;;;;;;;9.25;2.42;;;;;;;27.19;43.34;101215.16;5115140;28;20030;-46
2022/07/25 02:23:38;;;;;;;7.05;2.22;;;;;;;27.15;43.44;101216.91;5114626;28;20470;-45
2022/07/25 02:26:06;;;;;;;10.00;2.95;;;;;;;27.15;43.05;101186.19;5114139;28;20035;-44
2022/07/25 02:28:35;;;;;;;7.80;2.63;;;;;;;27.24;43.05;101218.72;5114818;28;20032;-44
2022/07/25 02:31:04;;;;;;;5.93;2.28;;;;;;;27.21;43.02;101201.16;5114458;28;20032;-44
2022/07/25 02:33:32;;;;;;;8.35;3.03;;;;;;;27.11;43.29;101209.88;5114942;28;20100;-46
2022/07/25 02:36:01;;;;;;;8.23;2.60;;;;;;;27.04;43.33;101203.72;5115051;28;20088;-44
2022/07/25 02:38:29;;;;;;;8.07;2.40;;;;;;;27.02;43.40;101208.09;5114950;28;20055;-45
2022/07/25 02:40:58;;;;;;;7.60;2.88;;;;;;;27.19;43.08;101213.44;5114672;28;20023;-48
2022/07/25 02:43:26;;;;;;;12.25;2.97;;;;;;;27.16;43.18;101210.78;5114088;28;20099;-51
2022/07/25 02:45:55;;;;;;;7.20;2.60;;;;;;;27.20;42.98;101206.41;5096341;28;20035;-48
2022/07/25 02:48:23;;;;;;;6.65;2.92;;;;;;;27.05;43.32;101200.22;5114297;28;20462;-44
2022/07/25 02:50:51;;;;;;;10.07;2.65;;;;;;;27.01;43.26;101203.69;5114032;28;20023;-53
2022/07/25 02:53:20;;;;;;;5.95;2.40;;;;;;;27.07;43.17;101213.38;5114572;28;20034;-47
2022/07/25 02:55:49;;;;;;;5.47;2.63;;;;;;;27.02;43.31;101209.84;5113744;28;20038;-52
2022/07/25 02:58:16;;;;;;;7.60;2.50;;;;;;;27.03;43.40;101214.25;5114418;28;20110;-47
2022/07/25 03:00:45;;;;;;;8.80;2.55;;;;;;;26.99;43.42;101200.16;5114564;28;20115;-51
2022/07/25 03:03:14;;;;;;;6.65;2.55;;;;;;;27.12;43.08;101206.38;5114085;28;20407;-47
2022/07/25 03:05:42;;;;;;;10.90;2.95;;;;;;;27.05;43.33;101201.97;5114176;28;20046;-45
2022/07/25 03:08:10;;;;;;;8.00;2.88;;;;;;;27.14;43.02;101209.91;5114010;28;20040;-48
2022/07/25 03:10:39;;;;;;;7.05;2.35;;;;;;;27.13;42.93;101203.75;5113824;28;20016;-46
2022/07/25 03:13:07;;;;;;;10.75;2.88;;;;;;;27.05;43.25;101205.47;5113969;28;20446;-46
2022/07/25 03:15:36;;;;;;;9.35;3.15;;;;;;;27.00;43.46;101196.66;5113473;28;20023;-52
2022/07/25 03:18:05;;;;;;;8.15;2.63;;;;;;;27.13;43.05;101198.50;5096105;28;20123;-50
2022/07/25 03:20:33;;;;;;;9.00;2.70;;;;;;;27.22;43.02;101194.13;5114031;28;20015;-49
2022/07/25 03:23:02;;;;;;;6.60;2.60;;;;;;;27.17;43.20;101203.75;5113896;28;20352;-45
2022/07/25 03:25:30;;;;;;;9.23;2.60;;;;;;;27.26;42.87;101193.25;5113614;28;20122;-47
2022/07/25 03:27:59;;;;;;;8.27;2.25;;;;;;;27.19;43.04;101187.09;5113497;28;20050;-51
2022/07/25 03:30:27;;;;;;;9.45;2.53;;;;;;;27.13;43.24;101192.34;5114424;28;20117;-48
2022/07/25 03:32:56;;;;;;;10.43;3.42;;;;;;;27.09;43.26;101196.72;5113582;28;20031;-47
2022/07/25 03:35:24;;;;;;;8.35;3.08;;;;;;;27.09;43.31;101207.25;5113600;28;20085;-48
2022/07/25 03:37:53;;;;;;;7.25;2.70;;;;;;;27.12;42.93;101196.72;5113524;28;20020;-48
2022/07/25 03:40:22;;;;;;;10.80;3.10;;;;;;;27.01;43.60;101190.53;5113852;28;20099;-51
2022/07/25 03:42:50;;;;;;;9.00;2.35;;;;;;;27.10;43.04;101193.22;5113605;28;20023;-50
2022/07/25 03:45:19;;;;;;;11.40;3.05;;;;;;;27.08;43.02;101197.59;5113462;28;20051;-49
2022/07/25 03:47:47;;;;;;;8.85;2.70;;;;;;;27.00;43.06;101194.03;5113485;28;20023;-44
2022/07/25 03:50:15;;;;;;;9.32;2.35;;;;;;;27.01;43.13;101203.69;5113321;28;20192;-46
2022/07/25 03:52:44;;;;;;;8.52;3.20;;;;;;;27.02;42.99;101197.56;5113660;28;20382;-47
2022/07/25 03:55:13;;;;;;;9.40;2.85;;;;;;;26.96;42.97;101205.44;5113602;28;20085;-52
2022/07/25 03:57:41;;;;;;;8.63;2.65;;;;;;;26.93;42.97;101201.03;5114096;28;20020;-51
2022/07/25 04:00:11;;;;;;;9.55;2.90;;;;;;;26.93;43.14;101208.06;5113560;28;20424;-50
2022/07/25 04:02:40;;;;;;;9.23;2.83;;;;;;;26.93;42.65;101208.94;5091442;28;20368;-46
2022/07/25 04:05:09;;;;;;;16.50;3.45;;;;;;;26.92;43.14;101212.44;5092999;28;20419;-52
2022/07/25 04:07:38;;;;;;;7.82;2.95;;;;;;;26.77;43.04;101207.06;5093427;28;20028;-46
2022/07/25 04:10:07;;;;;;;10.68;3.22;;;;;;;26.87;42.69;101210.66;5093140;28;20027;-48
2022/07/25 04:12:36;;;;;;;7.72;2.17;;;;;;;26.79;42.83;101207.97;5092904;28;20483;-47
2022/07/25 04:15:05;;;;;;;8.68;2.47;;;;;;;26.86;42.83;101215.06;5092761;28;20097;-47
2022/07/25 04:17:33;;;;;;;8.98;3.13;;;;;;;26.88;42.68;101207.16;5092882;28;20027;-49
2022/07/25 04:20:02;;;;;;;12.10;3.08;;;;;;;26.79;42.67;101213.22;5092989;28;20120;-45
2022/07/25 04:22:30;;;;;;;12.40;3.22;;;;;;;26.79;42.93;101207.97;5093056;28;20110;-50
2022/07/25 04:24:59;;;;;;;11.27;3.30;;;;;;;26.71;42.80;101214.94;5091771;28;20028;-49
2022/07/25 04:27:27;;;;;;;7.88;2.97;;;;;;;26.65;43.01;101207.88;5093075;28;20032;-46
2022/07/25 04:29:56;;;;;;;8.95;2.75;;;;;;;26.67;43.08;101216.66;5092991;28;20028;-46
2022/07/25 04:32:24;;;;;;;12.95;3.40;;;;;;;26.69;42.82;101213.19;5093008;28;20508;-49
2022/07/25 04:34:54;;;;;;;6.85;2.28;;;;;;;26.72;42.78;101211.44;5092933;28;20032;-46
2022/07/25 04:37:22;;;;;;;9.07;3.28;;;;;;;26.78;42.78;101211.47;5092982;28;20024;-45
2022/07/25 04:39:51;;;;;;;7.78;2.42;;;;;;;26.77;42.71;101220.22;5092942;28;20383;-46
2022/07/25 04:42:19;;;;;;;7.15;2.65;;;;;;;26.63;43.03;101217.53;5093046;28;20094;-45
2022/07/25 04:44:48;;;;;;;10.23;2.63;;;;;;;26.61;43.11;101221.91;5092679;28;20032;-48
2022/07/25 04:47:16;;;;;;;8.95;3.08;;;;;;;26.68;42.76;101215.78;5092654;28;20085;-53
2022/07/25 04:49:45;;;;;;;10.10;3.10;;;;;;;26.76;42.78;101227.25;5095688;28;20393;-51
2022/07/25 04:52:13;;;;;;;11.05;2.90;;;;;;;26.69;42.49;101233.34;5096706;28;20032;-52
2022/07/25 04:54:42;;;;;;;10.48;3.10;;;;;;;26.68;42.67;101226.31;5096745;28;20024;-46
2022/07/25 04:57:09;;;;;;;7.47;2.78;;;;;;;26.60;42.66;101239.44;5096401;28;20364;-49
2022/07/25 04:59:38;;;;;;;13.73;3.03;;;;;;;26.69;42.54;101247.41;5096086;28;20107;-45
2022/07/25 05:02:06;;;;;;;7.47;2.80;;;;;;;26.76;42.52;101248.31;5094325;28;20052;-47
2022/07/25 05:04:35;;;;;;;10.10;2.90;;;;;;;26.71;42.46;101242.13;5095445;28;20119;-52
2022/07/25 05:07:03;;;;;;;10.45;2.85;;;;;;;26.58;42.81;101248.19;5095328;28;20085;-50
2022/07/25 05:09:32;;;;;;;12.88;3.20;;;;;;;26.56;42.96;101245.53;5096237;28;20020;-44
2022/07/25 05:12:00;;;;;;;10.25;3.00;;;;;;;26.69;42.24;101254.41;5094800;28;20028;-49
2022/07/25 05:14:29;;;;;;;8.30;2.53;;;;;;;26.63;42.56;101241.22;5095583;28;20016;-49
2022/07/25 05:16:58;;;;;;;11.95;3.47;;;;;;;26.71;42.53;101252.66;5095849;28;20028;-47
2022/07/25 05:19:26;;;;;;;8.27;3.03;;;;;;;26.64;42.20;101235.09;5077489;28;20032;-47
2022/07/25 05:21:55;;;;;;;11.68;3.22;;;;;;;26.72;42.20;101253.56;5096176;28;20085;-46
2022/07/25 05:24:23;;;;;;;8.95;2.92;;;;;;;26.70;42.18;101271.94;5095969;28;20466;-53
2022/07/25 05:26:52;;;;;;;9.25;2.90;;;;;;;26.56;42.59;101269.22;5094527;28;20062;-48
2022/07/25 05:29:21;;;;;;;8.60;2.38;;;;;;;26.68;42.17;101271.94;5095797;28;20024;-49
2022/07/25 05:31:49;;;;;;;9.38;2.65;;;;;;;26.66;42.23;101272.78;5095147;28;20483;-49
2022/07/25 05:34:18;;;;;;;10.48;3.00;;;;;;;26.63;42.25;101278.94;5095406;28;20032;-51
2022/07/25 05:36:46;;;;;;;7.60;2.85;;;;;;;26.67;42.14;101271.94;5095632;28;20019;-47
2022/07/25 05:39:15;;;;;;;9.63;3.00;;;;;;;26.58;42.18;101270.09;5095726;28;20031;-52
2022/07/25 05:41:44;;;;;;;11.10;2.55;;;;;;;26.57;42.45;101273.59;5095576;28;20024;-52
2022/07/25 05:44:12;;;;;;;10.88;2.70;;;;;;;26.65;42.20;101278.91;5093768;28;20035;-50
2022/07/25 05:46:41;;;;;;;9.70;3.05;;;;;;;26.61;42.20;101280.66;5095548;28;20452;-50
2022/07/25 05:49:10;;;;;;;17.45;3.53;;;;;;;26.50;42.31;101277.94;5093980;28;20035;-48
2022/07/25 05:51:37;;;;;;;9.20;2.70;;;;;;;26.54;42.30;101273.63;5095299;28;20020;-46
2022/07/25 05:54:05;;;;;;;10.48;2.35;;;;;;;26.45;42.41;101263.00;5094215;28;20107;-50
2022/07/25 05:56:34;;;;;;;10.68;3.10;;;;;;;26.47;42.56;101272.69;5093778;28;20487;-47
2022/07/25 05:59:02;;;;;;;11.38;2.75;;;;;;;26.61;42.47;101287.69;5094800;28;20085;-49
2022/07/25 06:01:31;;;;;;;11.52;3.30;;;;;;;26.71;42.19;101291.25;5094928;28;20028;-50
2022/07/25 06:03:59;;;;;;;16.23;3.85;;;;;;;26.60;42.44;101291.19;5115258;28;20067;-48
2022/07/25 06:06:31;;;;;;;14.40;3.33;;;;;;;26.71;42.40;101296.53;5115299;28;20038;-46
2022/07/25 06:09:00;;;;;;;11.05;3.13;;;;;;;26.64;42.42;101291.22;5097308;28;20027;-48
2022/07/25 06:11:29;;;;;;;13.27;3.85;;;;;;;26.75;42.05;101293.91;5115159;28;20050;-44
2022/07/25 06:13:58;;;;;;;11.20;3.30;;;;;;;26.70;42.22;101298.25;5114982;28;20083;-49
2022/07/25 06:16:26;;;;;;;12.85;2.95;;;;;;;26.77;42.20;101296.56;5115279;28;20064;-48
2022/07/25 06:18:55;;;;;;;8.95;2.40;;;;;;;26.75;42.29;101309.72;5114857;28;20030;-53
2022/07/25 06:21:23;;;;;;;8.43;2.63;;;;;;;26.70;42.27;101303.53;5115095;28;20177;-50
2022/07/25 06:23:52;;;;;;;7.78;1.92;;;;;;;26.75;42.17;101314.06;5097239;28;20036;-47
2022/07/25 06:26:21;;;;;;;7.57;2.40;;;;;;;26.72;42.33;101306.19;5114737;28;20407;-50
2022/07/25 06:28:50;;;;;;;8.40;2.45;;;;;;;26.68;42.34;101314.06;5114753;28;20028;-52
2022/07/25 06:31:18;;;;;;;9.50;3.08;;;;;;;26.84;42.00;101322.09;5114871;28;20110;-51
2022/07/25 06:33:47;;;;;;;9.68;2.30;;;;;;;26.78;41.95;101319.38;5114909;28;20473;-48
2022/07/25 06:36:16;;;;;;;11.52;2.90;;;;;;;26.67;42.02;101314.03;5115088;28;20034;-51
2022/07/25 06:38:44;;;;;;;12.32;2.58;;;;;;;26.69;42.29;101323.72;5114689;28;20027;-48
2022/07/25 06:41:16;;;;;;;11.38;2.65;;;;;;;26.65;42.21;101327.19;5114630;28;20377;-48
2022/07/25 06:43:45;;;;;;;9.57;2.75;;;;;;;26.63;42.31;101322.78;5115019;28;20539;-49
2022/07/25 06:46:13;;;;;;;9.43;2.35;;;;;;;26.54;42.41;101332.38;5114433;28;20035;-44
2022/07/25 06:48:42;;;;;;;10.73;2.45;;;;;;;26.67;42.08;101337.72;5114531;28;20032;-50
2022/07/25 06:51:11;;;;;;;9.48;2.50;;;;;;;26.63;42.16;101344.72;5114119;28;20053;-52
2022/07/25 06:53:40;;;;;;;11.60;2.95;;;;;;;26.63;42.04;101334.19;5114578;28;20019;-48
2022/07/25 06:56:09;;;;;;;10.93;3.00;;;;;;;26.59;42.07;101349.94;5114611;28;20024;-46
2022/07/25 06:58:37;;;;;;;10.05;2.47;;;;;;;26.58;42.31;101349.03;5114395;28;20020;-46
2022/07/25 07:01:04;;;;;;;10.48;2.60;;;;;;;26.53;42.14;101348.16;5096340;28;20093;-48
2022/07/25 07:03:36;;;;;;;6.95;2.28;;;;;;;26.46;41.92;101359.47;5113928;28;20060;-49
2022/07/25 07:06:05;;;;;;;9.32;2.70;;;;;;;26.45;42.11;101347.19;5113835;28;20110;-53
2022/07/25 07:08:34;;;;;;;8.02;2.30;;;;;;;26.60;41.74;101356.97;5113791;28;20039;-52
2022/07/25 07:11:06;;;;;;;9.00;2.50;;;;;;;26.53;41.68;101356.91;5113618;28;20517;-50
2022/07/25 07:13:34;;;;;;;12.32;2.95;;;;;;;26.54;41.71;101368.31;5114273;28;20034;-51
2022/07/25 07:16:03;;;;;;;8.95;2.40;;;;;;;26.48;41.59;101360.38;5114133;28;20058;-48
2022/07/25 07:18:31;;;;;;;10.93;2.38;;;;;;;26.34;41.55;101363.78;5113433;28;20371;-48
2022/07/25 07:21:00;;;;;;;8.52;1.92;;;;;;;26.36;41.94;101367.28;5096359;28;20024;-47
2022/07/25 07:23:28;;;;;;;9.63;2.10;;;;;;;26.30;41.57;101361.09;5114400;28;20031;-49
2022/07/25 07:25:57;;;;;;;7.18;1.80;;;;;;;26.33;41.75;101366.38;5113863;28;20031;-49
2022/07/25 07:28:26;;;;;;;9.40;2.25;;;;;;;26.43;41.42;101369.97;5113450;28;20027;-49
2022/07/25 07:30:54;;;;;;;5.15;1.80;;;;;;;26.43;41.49;101364.69;5113870;28;20026;-45
2022/07/25 07:33:23;;;;;;;6.43;1.88;;;;;;;26.48;41.33;101374.41;5114069;28;20030;-52
2022/07/25 07:35:51;;;;;;;9.45;2.15;;;;;;;26.58;41.11;101375.34;5095070;28;20535;-49
2022/07/25 07:38:20;;;;;;;8.07;2.22;;;;;;;26.56;41.39;101382.34;5113747;28;20115;-53
2022/07/25 07:40:49;;;;;;;7.82;2.42;;;;;;;26.47;40.92;101383.19;5113943;28;20356;-47
2022/07/25 07:43:17;;;;;;;6.25;2.00;;;;;;;26.47;40.91;101382.28;5113124;28;20038;-46
2022/07/25 07:45:46;;;;;;;6.93;1.58;;;;;;;26.48;40.81;101387.53;5113281;28;20060;-50
2022/07/25 07:48:14;;;;;;;10.20;2.97;;;;;;;26.47;41.02;101391.06;5113606;28;20019;-50
2022/07/25 07:50:42;;;;;;;8.45;1.75;;;;;;;26.47;40.60;101393.72;5113579;28;20051;-47
2022/07/25 07:53:11;;;;;;;7.65;1.85;;;;;;;26.31;40.61;101391.78;5113614;28;20466;-47
2022/07/25 07:55:53;;;;;;;9.25;2.30;;;;;;;26.31;40.81;101399.69;5113544;28;20038;-51
2022/07/25 07:58:22;;;;;;;7.22;1.80;;;;;;;26.36;41.07;101393.59;5113868;28;20030;-44
2022/07/25 08:00:51;;;;;;;9.73;2.00;;;;;;;26.30;40.99;101408.44;5113368;28;20053;-45
2022/07/25 08:03:20;;;;;;;7.22;1.70;;;;;;;26.17;41.06;101408.28;5113533;28;20490;-52
2022/07/25 08:05:50;;;;;;;8.43;2.17;;;;;;;26.15;41.25;101414.41;5113606;28;20466;-46
2022/07/25 08:08:19;;;;;;;8.70;2.15;;;;;;;26.17;41.14;101413.56;5113444;28;20043;-50
2022/07/25 08:10:47;;;;;;;5.80;1.98;;;;;;;26.05;41.06;101410.75;5113539;28;20023;-46
2022/07/25 08:13:18;;;;;;;10.05;2.30;;;;;;;26.03;41.36;101420.38;5113837;28;20024;-53
2022/07/25 08:15:49;;;;;;;7.55;1.55;;;;;;;26.00;41.49;101421.22;5113409;28;20385;-52
2022/07/25 08:18:18;;;;;;;6.63;1.75;;;;;;;25.99;41.52;101421.19;5113578;28;20028;-46
2022/07/25 08:20:47;;;;;;;8.70;2.20;;;;;;;26.02;41.45;101423.88;5113677;28;20381;-44
2022/07/25 08:23:15;;;;;;;6.72;1.85;;;;;;;25.85;41.45;101427.16;5114081;28;20058;-51
2022/07/25 08:25:44;;;;;;;5.28;1.60;;;;;;;25.94;41.16;101429.03;5117992;28;20081;-50
2022/07/25 08:28:13;;;;;;;4.90;1.85;;;;;;;25.83;41.41;101430.66;5116849;28;20069;-51
2022/07/25 08:30:42;;;;;;;10.07;1.90;;;;;;;25.94;40.86;101432.56;5117673;28;20385;-44
2022/07/25 08:33:12;;;;;;;8.32;1.92;;;;;;;25.90;41.24;101429.84;5117215;28;20034;-46
2022/07/25 08:35:40;;;;;;;7.15;1.73;;;;;;;25.94;40.63;101432.56;5116954;28;20023;-51
2022/07/25 08:38:10;;;;;;;6.97;1.50;;;;;;;25.94;40.38;101411.53;5117193;28;20391;-46
2022/07/25 08:40:39;;;;;;;6.43;1.60;;;;;;;26.08;40.37;101435.31;5117300;28;20063;-49
2022/07/25 08:43:11;;;;;;;6.60;1.65;;;;;;;26.08;40.37;101437.09;5116991;28;20035;-46
2022/07/25 08:45:46;;;;;;;5.40;1.40;;;;;;;26.17;40.26;101433.72;5117131;28;20112;-49
2022/07/25 08:48:17;;;;;;;3.42;1.50;;;;;;;26.19;39.98;101432.00;5116874;28;20035;-48
2022/07/25 08:50:46;;;;;;;8.90;1.67;;;;;;;26.16;39.79;101429.31;5117123;28;20051;-49
2022/07/25 08:53:14;;;;;;;4.00;1.35;;;;;;;26.14;39.75;101437.22;5117499;28;20028;-47
2022/07/25 08:55:44;;;;;;;5.80;1.73;;;;;;;26.17;39.79;101434.59;5098364;28;20024;-49
2022/07/25 08:58:14;;;;;;;4.63;1.33;;;;;;;25.95;39.61;101441.31;5116446;28;20016;-49
2022/07/25 09:00:43;;;;;;;9.00;1.95;;;;;;;26.05;39.83;101445.84;5117273;28;20149;-52
2022/07/25 09:03:11;;;;;;;6.53;1.80;;;;;;;26.09;39.44;101439.72;5116483;28;20048;-50
2022/07/25 09:05:40;;;;;;;5.85;1.42;;;;;;;26.03;39.46;101439.69;5116732;28;20023;-45
2022/07/25 09:08:10;;;;;;;4.70;1.48;;;;;;;25.97;39.53;101444.84;5116288;28;20039;-51
2022/07/25 09:10:44;;;;;;;2.80;1.17;;;;;;;25.97;39.18;101436.09;5116489;28;20034;-53
2022/07/25 09:13:13;;;;;;;4.15;1.30;;;;;;;26.09;38.95;101444.97;5116889;28;20034;-53
2022/07/25 09:15:47;;;;;;;5.97;1.67;;;;;;;26.11;39.23;101452.00;5116174;28;20059;-51
2022/07/25 09:18:17;;;;;;;6.22;1.80;;;;;;;26.05;39.07;101455.44;5115592;28;20027;-47
2022/07/25 09:20:47;;;;;;;7.38;1.73;;;;;;;25.93;39.17;101462.34;5116365;28;20421;-46
2022/07/25 09:23:32;;;;;;;5.13;1.63;;;;;;;25.97;39.17;101457.13;5115750;28;20031;-52
2022/07/25 09:26:13;;;;;;;8.77;1.85;;;;;;;25.96;38.83;101469.38;5115580;28;20031;-52
2022/07/25 09:28:43;;;;;;;5.28;1.48;;;;;;;25.92;39.31;101462.28;5098053;28;20039;-49
2022/07/25 09:31:12;;;;;;;6.05;1.80;;;;;;;26.05;39.18;101468.59;5116126;28;20073;-48
2022/07/25 09:33:51;;;;;;;9.90;2.35;;;;;;;26.10;39.21;101474.81;5115556;28;20481;-46
2022/07/25 09:36:20;;;;;;;5.25;1.40;;;;;;;25.96;39.01;101473.75;5116077;28;20028;-49
2022/07/25 09:39:00;;;;;;;7.43;1.67;;;;;;;25.91;38.61;101473.66;5116341;28;20024;-53
2022/07/25 09:41:48;;;;;;;5.80;1.40;;;;;;;25.92;38.93;101481.59;5081503;28;20024;-49
2022/07/25 09:44:21;;;;;;;5.90;1.73;;;;;;;26.01;38.84;101478.19;5115676;28;20031;-46
2022/07/25 09:46:50;;;;;;;5.57;1.60;;;;;;;26.02;38.65;101477.34;5116006;28;20024;-48
2022/07/25 09:49:19;;;;;;;7.00;1.02;;;;;;;26.11;38.23;101483.56;5115848;28;20095;-52
2022/07/25 09:51:48;;;;;;;6.60;1.75;;;;;;;26.04;38.51;101493.13;5115847;28;20065;-52
2022/07/25 09:54:16;;;;;;;4.60;1.65;;;;;;;26.07;37.98;101487.91;5115056;28;20375;-50
2022/07/25 09:56:45;;;;;;;6.55;1.40;;;;;;;25.97;38.28;101492.16;5097350;28;20054;-52
2022/07/25 09:59:14;;;;;;;4.85;1.38;;;;;;;25.98;38.07;101475.53;5097623;28;20019;-45
2022/07/25 10:01:56;;;;;;;6.28;1.50;;;;;;;26.07;38.31;101491.41;5097337;28;20023;-47
2022/07/25 10:04:38;;;;;;;5.85;1.67;;;;;;;26.13;37.91;101498.53;5115403;28;20023;-50
2022/07/25 10:07:09;;;;;;;6.07;1.45;;;;;;;26.19;38.25;101501.22;5097529;28;20115;-47
2022/07/25 10:09:57;;;;;;;5.07;1.88;;;;;;;26.15;37.76;101498.56;5115134;28;20028;-46
2022/07/25 10:12:26;;;;;;;7.05;1.40;;;;;;;26.15;38.11;101504.69;5097913;28;20026;-46
2022/07/25 10:15:14;;;;;;;5.43;1.48;;;;;;;26.18;38.17;101496.84;5097352;28;20020;-47
2022/07/25 10:17:43;;;;;;;6.82;1.83;;;;;;;26.00;38.05;101512.34;5114961;28;20038;-52
2022/07/25 10:20:12;;;;;;;5.57;1.58;;;;;;;26.00;38.65;101509.72;5114955;28;20058;-46
2022/07/25 10:22:45;;;;;;;8.52;1.92;;;;;;;25.85;38.95;101513.03;5115254;28;20020;-45
2022/07/25 10:25:16;;;;;;;8.27;1.90;;;;;;;26.03;38.83;101525.53;5114790;28;20027;-45
2022/07/25 10:27:48;;;;;;;7.15;1.50;;;;;;;26.08;38.92;101513.34;5114686;28;20043;-49
2022/07/25 10:30:22;;;;;;;8.27;2.08;;;;;;;26.12;39.05;101522.16;5096470;28;20386;-48
2022/07/25 10:33:02;;;;;;;5.67;1.70;;;;;;;26.09;39.18;101520.38;5115122;28;20127;-50
2022/07/25 10:35:32;;;;;;;6.88;1.75;;;;;;;26.24;38.97;101531.09;5114646;28;20035;-45
2022/07/25 10:38:03;;;;;;;6.82;2.28;;;;;;;26.15;39.26;101523.09;5114894;28;20103;-48
2022/07/25 10:40:40;;;;;;;6.38;2.05;;;;;;;26.33;38.98;101518.91;5114993;28;20024;-47
2022/07/25 10:43:14;;;;;;;9.32;2.53;;;;;;;26.16;39.16;101516.09;5096607;28;20027;-48
2022/07/25 10:45:42;;;;;;;;;;;;;;;26.20;39.45;101520.53;5114873;28;20080;-48
2022/07/25 10:48:13;;;;;;;5.07;1.40;;;;;;;26.18;39.40;101517.88;5114327;28;20358;-50
2022/07/25 10:50:53;;;;;;;10.65;1.70;;;;;;;26.15;39.09;101527.47;5114494;28;20027;-52
2022/07/25 10:53:44;;;;;;;6.10;1.48;;;;;;;26.33;38.75;101532.97;5114553;28;20036;-48
2022/07/25 10:56:19;;;;;;;4.97;1.65;;;;;;;26.36;38.86;101540.00;5105317;28;20383;-45
2022/07/25 10:58:51;;;;;;;6.80;1.35;;;;;;;26.26;38.39;101531.13;5114093;28;20027;-47
2022/07/25 11:01:22;;;;;;;8.80;1.80;;;;;;;26.27;38.22;101540.78;5114400;28;20056;-50
2022/07/25 11:03:52;;;;;;;5.80;1.05;;;;;;;26.35;38.41;101547.03;5114021;28;20048;-46
2022/07/25 11:06:40;;;;;;;5.57;1.35;;;;;;;26.41;38.45;101548.84;5114173;28;20035;-45
2022/07/25 11:09:19;;;;;;;5.97;1.30;;;;;;;26.28;38.54;101555.69;5109845;28;20474;-45
2022/07/25 11:11:49;;;;;;;6.60;1.70;;;;;;;26.26;39.05;101557.41;5113964;28;20032;-46
2022/07/25 11:14:20;;;;;;;4.57;1.40;;;;;;;26.24;39.26;101546.88;5095243;28;20051;-45
2022/07/25 11:16:50;;;;;;;5.07;1.52;;;;;;;26.24;39.53;101552.16;5113862;28;20110;-46
2022/07/25 11:19:29;;;;;;;8.35;1.75;;;;;;;26.39;39.17;101571.59;5114337;28;20076;-44
2022/07/25 11:22:00;;;;;;;5.40;1.50;;;;;;;26.26;39.11;101554.78;5095605;28;20371;-45
2022/07/25 11:24:48;;;;;;;5.22;1.23;;;;;;;26.38;38.93;101556.69;5113895;28;20019;-51
2022/07/25 11:27:29;;;;;;;3.90;1.80;;;;;;;26.48;38.63;101561.19;5095606;28;20031;-47
2022/07/25 11:30:18;;;;;;;4.47;1.05;;;;;;;26.45;38.99;101563.81;5114155;28;20110;-46
2022/07/25 11:32:57;;;;;;;7.25;1.40;;;;;;;26.39;39.28;101575.09;5114240;28;20367;-52
2022/07/25 11:35:29;;;;;;;4.28;0.98;;;;;;;26.49;39.17;101564.72;5113871;28;20073;-49